Time;durP1;ratioP1;P1;durP2;ratioP2;P2;SDS_P1;SDS_P2;PMS_P1;PMS_P2;Temp;Humidity;BMP_temperature;BMP_pressure;BME280_temperature;BME280_humidity;BME280_pressure;Samples;Min_cycle;Max_cycle;Signal;HPM_P1;HPM_P2
2022/10/14 00:09:54;;;;;;;1.25;1.02;;;;;;;17.44;100.00;101169.22;20899051;27;20062;-76
2022/10/14 00:19:56;;;;;;;1.30;1.05;;;;;;;17.31;100.00;101155.91;20886745;27;20063;-76
2022/10/14 00:29:57;;;;;;;1.15;1.00;;;;;;;17.20;100.00;101142.50;20947023;27;20062;-76
2022/10/14 00:40:00;;;;;;;0.82;0.80;;;;;;;17.43;100.00;101180.97;20873719;27;20073;-77
2022/10/14 00:50:02;;;;;;;1.13;1.00;;;;;;;17.43;100.00;101178.28;20851591;27;20490;-76
2022/10/14 01:00:08;;;;;;;0.85;0.80;;;;;;;17.43;100.00;101180.97;20957312;27;20363;-76
2022/10/14 01:10:19;;;;;;;1.50;1.40;;;;;;;17.43;100.00;101166.63;20899757;27;20051;-76
2022/10/14 01:20:39;;;;;;;1.25;0.90;;;;;;;17.42;100.00;101160.41;20854345;27;20041;-76
2022/10/14 01:30:45;;;;;;;1.05;0.95;;;;;;;17.09;100.00;101094.94;20909208;27;20040;-76
2022/10/14 01:40:57;;;;;;;1.03;0.90;;;;;;;17.40;100.00;101140.84;20913932;27;20041;-77
2022/10/14 01:51:00;;;;;;;0.70;0.70;;;;;;;17.38;100.00;101132.06;20961809;27;20148;-76
2022/10/14 02:01:04;;;;;;;1.20;1.05;;;;;;;17.40;100.00;101122.84;20923677;27;20044;-76
2022/10/14 02:11:14;;;;;;;0.82;0.82;;;;;;;17.41;100.00;101121.03;20859919;27;20463;-76
2022/10/14 02:21:16;;;;;;;0.95;0.90;;;;;;;17.40;100.00;101124.72;20981160;27;20049;-76
2022/10/14 02:31:18;;;;;;;1.10;1.00;;;;;;;17.23;100.00;101104.56;20962766;27;20045;-76
2022/10/14 02:41:22;;;;;;;0.88;0.88;;;;;;;17.21;100.00;101088.53;20833888;27;20041;-76
2022/10/14 02:51:24;;;;;;;0.80;0.80;;;;;;;17.40;100.00;101130.09;20854036;27;20118;-76
2022/10/14 03:01:25;;;;;;;0.77;0.77;;;;;;;17.39;100.00;101137.28;20905657;27;20119;-76
2022/10/14 03:11:27;;;;;;;0.70;0.70;;;;;;;17.39;100.00;101128.38;20928246;27;20132;-76
2022/10/14 03:21:36;;;;;;;0.80;0.80;;;;;;;17.28;100.00;101110.44;20769042;27;20310;-76
2022/10/14 03:31:39;;;;;;;0.68;0.68;;;;;;;16.95;100.00;101064.63;20781963;27;20042;-76
2022/10/14 03:42:17;;;;;;;0.75;0.75;;;;;;;17.38;100.00;101121.28;20761413;27;20413;-76
2022/10/14 03:52:21;;;;;;;0.80;0.80;;;;;;;17.20;100.00;101097.59;20989383;27;20042;-76
2022/10/14 04:02:34;;;;;;;0.80;0.80;;;;;;;17.30;100.00;101113.00;20734847;27;20521;-76
2022/10/14 04:12:38;;;;;;;0.57;0.57;;;;;;;17.37;100.00;101109.66;20784498;27;20048;-76
2022/10/14 04:22:44;;;;;;;0.63;0.60;;;;;;;17.28;100.00;101093.44;20767663;27;20105;-76
2022/10/14 04:32:48;;;;;;;0.90;0.90;;;;;;;17.37;100.00;101106.13;20784935;27;20045;-76
2022/10/14 04:42:57;;;;;;;0.77;0.77;;;;;;;17.15;100.00;101048.69;20790875;27;20076;-76
2022/10/14 04:53:07;;;;;;;1.63;1.30;;;;;;;17.39;100.00;101074.56;20712681;27;20480;-75
2022/10/14 05:03:24;;;;;;;2.38;1.50;;;;;;;17.44;100.00;101077.72;20775336;27;20053;-76
2022/10/14 05:13:25;;;;;;;2.35;1.50;;;;;;;17.40;100.00;101034.03;20774577;27;20447;-76
2022/10/14 05:23:33;;;;;;;2.65;1.67;;;;;;;17.54;100.00;101046.34;20722100;27;20042;-76
2022/10/14 05:33:36;;;;;;;5.95;1.77;;;;;;;17.61;100.00;101014.38;20833661;27;20472;-75
2022/10/14 05:43:38;;;;;;;3.60;1.70;;;;;;;17.54;100.00;100981.72;21008425;27;20074;-75
2022/10/14 05:53:41;;;;;;;2.65;1.45;;;;;;;17.68;100.00;100993.16;20924531;27;20054;-75
2022/10/14 06:03:49;;;;;;;2.55;1.45;;;;;;;17.68;100.00;101002.09;20752177;27;20054;-75
2022/10/14 06:13:51;;;;;;;2.53;1.33;;;;;;;17.63;100.00;100979.22;20757767;27;20499;-75
2022/10/14 06:23:53;;;;;;;1.75;1.40;;;;;;;17.72;100.00;100988.34;20872976;27;20043;-75
2022/10/14 06:33:54;;;;;;;7.07;2.25;;;;;;;17.72;100.00;100989.22;20802223;27;20165;-75
2022/10/14 06:43:56;;;;;;;1.33;1.20;;;;;;;17.75;100.00;100967.41;20739790;27;20064;-75
2022/10/14 06:53:57;;;;;;;1.90;1.20;;;;;;;17.74;100.00;100984.56;20742475;27;20079;-75
2022/10/14 07:03:59;;;;;;;1.27;1.10;;;;;;;17.76;100.00;100979.03;20783599;27;20056;-76
2022/10/14 07:14:00;;;;;;;2.70;1.02;;;;;;;17.76;100.00;100969.13;20796496;27;20065;-75
2022/10/14 07:24:02;;;;;;;1.83;1.25;;;;;;;17.76;100.00;100968.25;20754467;27;23286;-75
2022/10/14 07:34:03;;;;;;;2.80;1.60;;;;;;;17.77;100.00;100961.88;20756951;27;20054;-75
2022/10/14 07:44:08;;;;;;;2.22;1.60;;;;;;;17.79;100.00;100971.53;20729281;27;20057;-74
2022/10/14 07:54:15;;;;;;;2.90;1.90;;;;;;;17.76;100.00;100969.13;20748502;27;20406;-75
2022/10/14 08:04:17;;;;;;;2.75;1.90;;;;;;;17.73;100.00;100958.63;20739191;27;20045;-76
2022/10/14 08:14:19;;;;;;;2.58;1.63;;;;;;;17.65;100.00;100940.44;20733324;27;20058;-75
2022/10/14 08:24:20;;;;;;;2.80;1.90;;;;;;;17.75;100.00;100945.88;20745160;27;20410;-75
2022/10/14 08:34:23;;;;;;;3.72;1.98;;;;;;;17.89;100.00;100959.94;20771487;27;20056;-75
2022/10/14 08:44:38;;;;;;;4.38;2.15;;;;;;;17.82;100.00;100959.63;20775882;27;20062;-75
2022/10/14 08:54:43;;;;;;;1.90;1.50;;;;;;;17.76;100.00;100936.81;20735105;27;20756;-76
2022/10/14 09:04:44;;;;;;;2.45;1.63;;;;;;;17.71;100.00;100936.34;20738256;27;20130;-75
2022/10/14 09:14:56;;;;;;;1.60;1.30;;;;;;;17.60;100.00;100918.44;20706955;27;20056;-77
2022/10/14 09:24:58;;;;;;;2.90;1.55;;;;;;;17.65;100.00;100918.03;20707531;27;20052;-76
2022/10/14 09:34:59;;;;;;;1.40;1.30;;;;;;;17.61;100.00;100922.84;20713146;27;20046;-75
2022/10/14 09:45:07;;;;;;;2.58;1.55;;;;;;;17.60;100.00;100909.50;20729710;27;20044;-74
2022/10/14 09:55:18;;;;;;;4.53;2.20;;;;;;;17.59;100.00;100897.03;20793751;27;20052;-73
2022/10/14 10:05:20;;;;;;;1.92;1.73;;;;;;;17.57;100.00;100893.63;20781166;27;20065;-74
2022/10/14 10:15:22;;;;;;;1.85;1.13;;;;;;;17.49;100.00;100865.53;20792592;27;20045;-74
2022/10/14 10:25:26;;;;;;;3.85;1.38;;;;;;;17.51;100.00;100852.78;20788565;27;20077;-74
2022/10/14 10:36:05;;;;;;;2.47;1.40;;;;;;;17.54;100.00;100847.16;20795974;27;20099;-74
2022/10/14 10:46:14;;;;;;;2.42;1.35;;;;;;;17.53;100.00;100839.22;20769706;27;20046;-74
2022/10/14 10:56:38;;;;;;;2.65;1.80;;;;;;;17.53;100.00;100817.69;20781271;27;20469;-74
2022/10/14 11:17:53;;;;;;;1.65;1.30;;;;;;;17.51;100.00;100793.59;20790652;27;20052;-74
2022/10/14 11:28:10;;;;;;;1.38;1.25;;;;;;;17.50;100.00;100783.81;20781688;27;20144;-74
2022/10/14 11:38:49;;;;;;;2.50;1.13;;;;;;;17.50;100.00;100775.72;20744097;28;20591;-74
2022/10/14 11:48:59;;;;;;;1.30;1.20;;;;;;;17.50;100.00;100743.44;20737522;27;20049;-75
2022/10/14 11:59:42;;;;;;;1.10;1.00;;;;;;;17.38;100.00;100717.63;20741000;27;20076;-75
2022/10/14 12:09:48;;;;;;;1.50;1.27;;;;;;;17.49;100.00;100716.69;20758587;27;20057;-75
2022/10/14 12:19:50;;;;;;;1.88;1.35;;;;;;;17.52;100.00;100711.00;20750304;27;20095;-75
2022/10/14 12:29:54;;;;;;;2.05;1.70;;;;;;;17.52;100.00;100692.16;20755330;27;20041;-75
2022/10/14 12:40:01;;;;;;;2.00;1.30;;;;;;;17.51;100.00;100679.72;20756971;27;20044;-75
2022/10/14 12:50:26;;;;;;;1.92;1.60;;;;;;;17.49;100.00;100666.38;20744775;27;20506;-75
2022/10/14 13:00:35;;;;;;;1.60;1.50;;;;;;;17.24;100.00;100612.09;20777545;27;20061;-77
2022/10/14 13:10:36;;;;;;;1.98;1.83;;;;;;;17.51;100.00;100653.63;20766060;27;20057;-75
2022/10/14 13:20:45;;;;;;;1.67;1.52;;;;;;;17.51;100.00;100648.25;20741014;27;20205;-75
2022/10/14 13:30:57;;;;;;;1.85;1.70;;;;;;;17.31;100.00;100595.41;20769542;27;20057;-75
2022/10/14 13:40:59;;;;;;;2.03;1.83;;;;;;;17.50;100.00;100619.63;20765161;27;20141;-74
2022/10/14 13:51:13;;;;;;;2.38;1.58;;;;;;;17.49;100.00;100607.16;20767156;27;20056;-75
2022/10/14 14:01:37;;;;;;;2.35;1.90;;;;;;;17.39;100.00;100569.47;20744088;27;20057;-75
2022/10/14 14:11:44;;;;;;;2.08;1.77;;;;;;;17.51;100.00;100577.44;20707869;27;20048;-75
2022/10/14 14:21:46;;;;;;;2.17;1.70;;;;;;;17.57;100.00;100573.31;20732329;27;20050;-74
2022/10/14 14:31:48;;;;;;;2.75;2.10;;;;;;;17.51;100.00;100545.97;20716980;27;20078;-75
2022/10/14 14:42:10;;;;;;;2.10;1.90;;;;;;;17.59;100.00;100552.47;20698317;27;20504;-74
2022/10/14 14:52:12;;;;;;;2.13;1.92;;;;;;;17.67;100.00;100541.84;20712528;27;20049;-75
2022/10/14 15:02:16;;;;;;;2.28;1.85;;;;;;;17.70;100.00;100544.28;20742295;27;20498;-75
2022/10/14 15:12:40;;;;;;;2.30;2.00;;;;;;;17.73;100.00;100533.22;20726421;27;20045;-75
2022/10/14 15:22:43;;;;;;;2.88;2.25;;;;;;;17.74;100.00;100528.66;20712369;27;20109;-75
2022/10/14 15:32:45;;;;;;;3.45;2.35;;;;;;;17.60;100.00;100478.81;20719937;27;20063;-74
2022/10/14 15:42:47;;;;;;;7.32;3.60;;;;;;;17.59;100.00;100477.97;20728684;27;20054;-74
2022/10/14 15:52:52;;;;;;;12.88;4.95;;;;;;;17.78;100.00;100485.16;20712175;27;20074;-75
2022/10/14 16:02:57;;;;;;;11.27;5.40;;;;;;;17.82;100.00;100474.94;20723601;27;20044;-75
2022/10/14 16:12:58;;;;;;;11.98;4.88;;;;;;;17.46;100.00;100405.59;20722150;27;20308;-75
2022/10/14 16:23:03;;;;;;;11.68;5.93;;;;;;;17.63;100.00;100427.38;20703680;27;20045;-74
2022/10/14 16:33:05;;;;;;;9.60;5.47;;;;;;;17.79;100.00;100451.84;20724093;27;20125;-74
2022/10/14 16:43:06;;;;;;;14.43;5.68;;;;;;;17.58;100.00;100422.44;20748243;27;20060;-76
2022/10/14 17:03:28;;;;;;;11.75;5.03;;;;;;;17.54;100.00;100424.56;20726642;27;20052;-76
2022/10/14 17:13:31;;;;;;;10.07;4.57;;;;;;;17.65;100.00;100438.84;20716647;27;20129;-76
2022/10/14 17:23:41;;;;;;;10.60;4.53;;;;;;;17.64;100.00;100445.22;20752606;27;20049;-75
2022/10/14 17:33:42;;;;;;;10.00;4.90;;;;;;;17.63;100.00;100451.59;20864043;27;20056;-76
2022/10/14 17:43:48;;;;;;;7.30;3.90;;;;;;;17.05;100.00;100362.81;20955131;27;20671;-76
2022/10/14 17:54:08;;;;;;;10.20;4.55;;;;;;;17.60;100.00;100447.38;20831064;27;20072;-76
2022/10/14 18:04:09;;;;;;;7.85;4.65;;;;;;;17.51;100.00;100446.38;20845286;27;20105;-76
2022/10/14 18:14:12;;;;;;;8.18;4.00;;;;;;;17.59;100.00;100450.19;20812195;27;20049;-76
2022/10/14 18:24:13;;;;;;;6.40;3.92;;;;;;;17.59;100.00;100450.19;20832368;27;20050;-76
2022/10/14 18:34:15;;;;;;;7.75;4.45;;;;;;;17.58;100.00;100449.34;20917565;27;20850;-76
2022/10/14 18:44:17;;;;;;;7.80;3.85;;;;;;;17.58;100.00;100451.19;20846414;27;20140;-76
2022/10/14 18:54:20;;;;;;;5.85;4.00;;;;;;;17.49;100.00;100436.78;20792525;27;20132;-76
2022/10/14 19:04:23;;;;;;;7.18;3.78;;;;;;;17.57;100.00;100452.19;20817407;27;20060;-76
2022/10/14 19:14:27;;;;;;;6.55;3.42;;;;;;;17.54;100.00;100437.19;20856384;27;20098;-75
2022/10/14 19:24:28;;;;;;;6.38;3.42;;;;;;;17.56;100.00;100445.09;20823465;27;20586;-76
2022/10/14 19:34:30;;;;;;;5.57;3.38;;;;;;;17.54;100.00;100448.78;20862718;27;20134;-75
2022/10/14 19:44:31;;;;;;;5.70;3.50;;;;;;;17.54;100.00;100443.41;20833912;27;20136;-76
2022/10/14 19:54:38;;;;;;;4.40;3.20;;;;;;;17.54;100.00;100438.03;20798965;27;20554;-76
2022/10/14 20:04:39;;;;;;;7.45;4.05;;;;;;;17.54;100.00;100435.31;20792519;27;20085;-76
2022/10/14 20:14:41;;;;;;;5.72;3.30;;;;;;;17.40;100.00;100401.66;20799995;27;20064;-75
2022/10/14 20:24:43;;;;;;;5.70;3.53;;;;;;;17.53;100.00;100419.34;20869980;27;20067;-75
2022/10/14 20:34:44;;;;;;;5.28;3.58;;;;;;;17.44;100.00;100406.72;20885247;27;20045;-76
2022/10/14 20:44:46;;;;;;;6.53;3.38;;;;;;;17.49;100.00;100429.53;20852408;27;20061;-76
2022/10/14 20:54:47;;;;;;;5.03;3.22;;;;;;;17.52;100.00;100421.16;20807250;27;20049;-76
2022/10/14 21:04:50;;;;;;;5.10;2.70;;;;;;;17.52;100.00;100423.84;20832802;27;20049;-76
2022/10/14 21:14:51;;;;;;;5.00;2.83;;;;;;;17.52;100.00;100409.56;20843899;27;20047;-76
2022/10/14 21:24:53;;;;;;;4.55;2.90;;;;;;;17.33;100.00;100386.25;20914856;27;20055;-76
2022/10/14 21:34:54;;;;;;;6.55;3.42;;;;;;;17.51;100.00;100419.47;20906896;27;20143;-78
2022/10/14 21:44:56;;;;;;;4.57;2.70;;;;;;;17.25;100.00;100368.13;20898177;27;20059;-76
2022/10/14 21:54:57;;;;;;;4.65;2.72;;;;;;;17.48;100.00;100398.25;20845698;27;20174;-76
2022/10/14 22:04:59;;;;;;;4.43;2.92;;;;;;;17.16;100.00;100377.06;20809933;27;20434;-76
2022/10/14 22:15:00;;;;;;;4.90;2.70;;;;;;;17.47;100.00;100404.63;20817956;27;20074;-76
2022/10/14 22:25:07;;;;;;;3.30;2.17;;;;;;;17.49;100.00;100408.00;20976758;27;20050;-75
2022/10/14 22:35:09;;;;;;;3.72;2.40;;;;;;;17.49;100.00;100396.41;20834991;27;20105;-76
2022/10/14 22:45:11;;;;;;;3.90;2.53;;;;;;;17.49;100.00;100399.94;20890460;27;20450;-76
2022/10/14 22:55:12;;;;;;;5.03;2.35;;;;;;;17.32;100.00;100363.03;20888436;27;20069;-75
2022/10/14 23:05:13;;;;;;;3.05;2.08;;;;;;;17.48;100.00;100384.78;20859273;27;20045;-76
2022/10/14 23:15:15;;;;;;;2.53;1.95;;;;;;;17.48;100.00;100381.25;20897410;27;20384;-75
2022/10/14 23:25:17;;;;;;;3.20;2.13;;;;;;;17.38;100.00;100367.81;20953148;27;20053;-76
2022/10/14 23:35:18;;;;;;;3.72;2.35;;;;;;;17.39;100.00;100364.97;20875897;27;20049;-76
2022/10/14 23:45:20;;;;;;;4.13;2.42;;;;;;;17.47;100.00;100375.00;20887806;27;20717;-76
2022/10/14 23:55:21;;;;;;;3.92;2.00;;;;;;;17.47;100.00;100366.94;20876122;27;20065;-76
